createdAt,value
2018-11-02T00:00:22.112Z,991.15
2018-11-02T00:01:22.150Z,991.18
2018-11-02T00:02:22.426Z,991.16
2018-11-02T00:03:22.440Z,991.16
2018-11-02T00:04:22.659Z,991.15
2018-11-02T00:05:22.870Z,991.26
2018-11-02T00:06:23.190Z,991.31
2018-11-02T00:07:23.180Z,991.30
2018-11-02T00:08:23.391Z,991.33
2018-11-02T00:09:23.570Z,991.27
2018-11-02T00:10:23.681Z,991.25
2018-11-02T00:11:24.872Z,991.29
2018-11-02T00:12:36.660Z,991.31
2018-11-02T00:13:33.254Z,991.32
2018-11-02T00:14:32.225Z,991.34
2018-11-02T00:15:24.635Z,991.43
2018-11-02T00:16:24.852Z,991.45
2018-11-02T00:17:32.671Z,991.44
2018-11-02T00:18:32.668Z,991.47
2018-11-02T00:19:32.744Z,991.47
2018-11-02T00:20:25.467Z,991.46
2018-11-02T00:21:25.677Z,991.43
2018-11-02T00:22:25.697Z,991.43
2018-11-02T00:23:25.874Z,991.40
2018-11-02T00:24:26.096Z,991.38
2018-11-02T00:25:26.318Z,991.40
2018-11-02T00:26:26.443Z,991.43
2018-11-02T00:27:26.576Z,991.52
2018-11-02T00:28:26.766Z,991.53
2018-11-02T00:29:26.931Z,991.56
2018-11-02T00:30:27.109Z,991.54
2018-11-02T00:31:27.389Z,991.55
2018-11-02T00:32:27.514Z,991.55
2018-11-02T00:33:27.737Z,991.55
2018-11-02T00:34:27.770Z,991.54
2018-11-02T00:35:27.938Z,991.54
2018-11-02T00:36:27.841Z,991.52
2018-11-02T00:37:28.240Z,991.51
2018-11-02T00:38:28.212Z,991.50
2018-11-02T00:39:28.311Z,991.52
2018-11-02T00:40:28.419Z,991.58
2018-11-02T00:41:28.514Z,991.57
2018-11-02T00:42:28.663Z,991.61
2018-11-02T00:43:28.753Z,991.57
2018-11-02T00:44:28.860Z,991.59
2018-11-02T00:45:29.023Z,991.62
2018-11-02T00:46:29.150Z,991.57
2018-11-02T00:47:29.311Z,991.53
2018-11-02T00:48:29.427Z,991.54
2018-11-02T00:49:29.535Z,991.58
2018-11-02T00:50:29.644Z,991.66
2018-11-02T00:51:29.740Z,991.68
2018-11-02T00:52:29.894Z,991.67
2018-11-02T00:53:30.001Z,991.68
2018-11-02T00:54:30.072Z,991.71
2018-11-02T00:55:30.286Z,991.79
2018-11-02T00:56:30.505Z,991.84
2018-11-02T00:57:30.619Z,991.82
2018-11-02T00:58:30.877Z,991.86
2018-11-02T00:59:30.984Z,991.87
2018-11-02T01:00:31.083Z,991.89
2018-11-02T01:01:31.222Z,991.94
2018-11-02T01:02:31.310Z,991.93
2018-11-02T01:03:31.567Z,991.94
2018-11-02T01:04:31.687Z,991.92
2018-11-02T01:05:31.888Z,991.96
2018-11-02T01:06:31.987Z,992.08
2018-11-02T01:07:32.098Z,992.05
2018-11-02T01:08:32.200Z,992.16
2018-11-02T01:09:32.377Z,992.16
2018-11-02T01:10:32.502Z,992.19
2018-11-02T01:11:32.643Z,992.12
2018-11-02T01:12:32.754Z,992.11
2018-11-02T01:13:32.886Z,992.10
2018-11-02T01:14:33.000Z,992.11
2018-11-02T01:15:33.174Z,992.12
2018-11-02T01:16:33.286Z,992.15
2018-11-02T01:17:33.369Z,992.17
2018-11-02T01:18:33.488Z,992.11
2018-11-02T01:19:33.619Z,992.12
2018-11-02T01:20:33.718Z,992.07
2018-11-02T01:21:33.966Z,992.09
2018-11-02T01:22:34.069Z,992.06
2018-11-02T01:23:34.186Z,992.07
2018-11-02T01:24:34.375Z,992.05
2018-11-02T01:25:34.614Z,992.10
2018-11-02T01:26:34.713Z,992.13
2018-11-02T01:27:34.807Z,992.17
2018-11-02T01:28:35.006Z,992.16
2018-11-02T01:29:35.233Z,992.16
2018-11-02T01:30:35.454Z,992.17
2018-11-02T01:31:35.677Z,992.20
2018-11-02T01:32:35.775Z,992.18
2018-11-02T01:33:35.932Z,992.18
2018-11-02T01:34:36.063Z,992.17
2018-11-02T01:35:36.311Z,992.24
2018-11-02T01:36:36.301Z,992.19
2018-11-02T01:37:36.444Z,992.13
2018-11-02T01:38:36.577Z,992.16
2018-11-02T01:39:36.736Z,992.17
2018-11-02T01:40:36.944Z,992.15
2018-11-02T01:41:37.074Z,992.17
2018-11-02T01:42:37.251Z,992.19
2018-11-02T01:43:37.385Z,992.14
2018-11-02T01:44:37.468Z,992.20
2018-11-02T01:45:37.739Z,992.20
2018-11-02T01:46:37.920Z,992.29
2018-11-02T01:47:38.048Z,992.28
2018-11-02T01:48:38.217Z,992.31
2018-11-02T01:49:38.350Z,992.31
2018-11-02T01:50:38.488Z,992.29
2018-11-02T01:51:38.587Z,992.29
2018-11-02T01:52:38.702Z,992.30
2018-11-02T01:53:38.800Z,992.25
2018-11-02T01:54:38.893Z,992.29
2018-11-02T01:55:39.217Z,992.26
2018-11-02T01:56:39.306Z,992.25
2018-11-02T01:57:39.580Z,992.21
2018-11-02T01:58:39.692Z,992.22
2018-11-02T01:59:39.770Z,992.23
2018-11-02T02:00:40.015Z,992.19
2018-11-02T02:01:40.086Z,992.22
2018-11-02T02:02:40.174Z,992.24
2018-11-02T02:03:40.377Z,992.31
2018-11-02T02:04:40.610Z,992.24
2018-11-02T02:05:40.819Z,992.26
2018-11-02T02:06:41.017Z,992.23
2018-11-02T02:07:41.127Z,992.24
2018-11-02T02:08:41.251Z,992.30
2018-11-02T02:09:41.365Z,992.30
2018-11-02T02:10:41.534Z,992.30
2018-11-02T02:11:41.666Z,992.34
2018-11-02T02:12:41.771Z,992.34
2018-11-02T02:13:41.912Z,992.33
2018-11-02T02:14:42.029Z,992.34
2018-11-02T02:15:42.110Z,992.33
2018-11-02T02:16:42.344Z,992.34
2018-11-02T02:17:42.437Z,992.35
2018-11-02T02:18:42.679Z,992.36
2018-11-02T02:19:42.751Z,992.36
2018-11-02T02:20:42.983Z,992.40
2018-11-02T02:21:43.085Z,992.39
2018-11-02T02:22:43.215Z,992.36
2018-11-02T02:23:43.317Z,992.38
2018-11-02T02:24:43.515Z,992.37
2018-11-02T02:25:43.722Z,992.39
2018-11-02T02:26:43.939Z,992.38
2018-11-02T02:27:44.177Z,992.39
2018-11-02T02:28:44.309Z,992.39
2018-11-02T02:29:44.452Z,992.43
2018-11-02T02:30:52.712Z,992.39
2018-11-02T02:31:52.804Z,992.39
2018-11-02T02:32:52.866Z,992.40
2018-11-02T02:33:45.048Z,992.37
2018-11-02T02:34:45.267Z,992.38
2018-11-02T02:35:53.065Z,992.38
2018-11-02T02:36:53.140Z,992.43
2018-11-02T02:37:53.172Z,992.40
2018-11-02T02:38:54.242Z,992.43
2018-11-02T02:39:46.198Z,992.42
2018-11-02T02:40:46.439Z,992.45
2018-11-02T02:41:46.568Z,992.43
2018-11-02T02:42:46.660Z,992.43
2018-11-02T02:43:46.766Z,992.40
2018-11-02T02:44:46.892Z,992.45
2018-11-02T02:45:47.051Z,992.44
2018-11-02T02:46:47.159Z,992.44
2018-11-02T02:47:47.409Z,992.45
2018-11-02T02:48:47.566Z,992.50
2018-11-02T02:49:47.608Z,992.50
2018-11-02T02:50:47.822Z,992.49
2018-11-02T02:51:48.043Z,992.48
2018-11-02T02:52:48.308Z,992.49
2018-11-02T02:53:48.381Z,992.51
2018-11-02T02:54:48.642Z,992.49
2018-11-02T02:55:48.725Z,992.52
2018-11-02T02:56:48.940Z,992.49
2018-11-02T02:57:49.185Z,992.48
2018-11-02T02:58:49.301Z,992.49
2018-11-02T02:59:49.393Z,992.45
2018-11-02T03:00:49.481Z,992.48
2018-11-02T03:01:49.705Z,992.47
2018-11-02T03:02:49.956Z,992.48
2018-11-02T03:03:50.040Z,992.42
2018-11-02T03:04:50.301Z,992.50
2018-11-02T03:05:50.405Z,992.45
2018-11-02T03:06:50.516Z,992.48
2018-11-02T03:07:50.629Z,992.46
2018-11-02T03:08:50.731Z,992.47
2018-11-02T03:09:50.847Z,992.43
2018-11-02T03:10:51.131Z,992.48
2018-11-02T03:11:51.125Z,992.51
2018-11-02T03:12:51.282Z,992.54
2018-11-02T03:13:51.349Z,992.51
2018-11-02T03:14:51.584Z,992.49
2018-11-02T03:15:51.670Z,992.50
2018-11-02T03:16:51.875Z,992.50
2018-11-02T03:17:52.086Z,992.54
2018-11-02T03:18:52.312Z,992.52
2018-11-02T03:19:52.559Z,992.50
2018-11-02T03:20:52.610Z,992.56
2018-11-02T03:21:52.928Z,992.55
2018-11-02T03:22:53.056Z,992.59
2018-11-02T03:23:53.208Z,992.57
2018-11-02T03:24:53.350Z,992.57
2018-11-02T03:25:53.427Z,992.55
2018-11-02T03:26:53.674Z,992.58
2018-11-02T03:27:53.785Z,992.62
2018-11-02T03:28:53.896Z,992.60
2018-11-02T03:29:54.005Z,992.62
2018-11-02T03:30:54.074Z,992.65
2018-11-02T03:31:54.298Z,992.68
2018-11-02T03:32:54.535Z,992.74
2018-11-02T03:33:58.292Z,992.70
2018-11-02T03:34:58.973Z,992.72
2018-11-02T03:35:58.372Z,992.72
2018-11-02T03:36:56.230Z,992.66
2018-11-02T03:37:55.350Z,992.70
2018-11-02T03:38:58.178Z,992.69
2018-11-02T03:40:01.032Z,992.71
2018-11-02T03:40:58.881Z,992.75
2018-11-02T03:41:59.795Z,992.72
2018-11-02T03:43:02.875Z,992.70
2018-11-02T03:44:00.061Z,992.73
2018-11-02T03:44:58.955Z,992.76
2018-11-02T03:45:58.686Z,992.79
2018-11-02T03:47:00.950Z,992.78
2018-11-02T03:47:58.941Z,992.78
2018-11-02T03:49:00.035Z,992.76
2018-11-02T03:50:05.160Z,992.78
2018-11-02T03:51:00.333Z,992.81
2018-11-02T03:52:00.582Z,992.82
2018-11-02T03:52:59.055Z,992.86
2018-11-02T03:54:01.153Z,992.85
2018-11-02T03:55:01.815Z,992.91
2018-11-02T03:56:00.589Z,992.94
2018-11-02T03:57:00.107Z,992.92
2018-11-02T03:58:02.084Z,992.92
2018-11-02T03:59:00.700Z,992.95
2018-11-02T04:00:03.124Z,992.95
2018-11-02T04:01:00.191Z,992.95
2018-11-02T04:02:03.035Z,992.94
2018-11-02T04:03:01.795Z,992.89
2018-11-02T04:04:03.029Z,992.95
2018-11-02T04:05:01.570Z,992.99
2018-11-02T04:05:59.902Z,992.98
2018-11-02T04:07:04.748Z,993.06
2018-11-02T04:08:01.647Z,993.08
2018-11-02T04:09:03.335Z,993.06
2018-11-02T04:10:02.779Z,993.11
2018-11-02T04:11:02.399Z,993.06
2018-11-02T04:12:02.605Z,993.10
2018-11-02T04:13:01.048Z,993.11
2018-11-02T04:14:02.590Z,993.18
2018-11-02T04:15:02.558Z,993.16
2018-11-02T04:16:03.192Z,993.19
2018-11-02T04:17:06.402Z,993.20
2018-11-02T04:18:03.382Z,993.25
2018-11-02T04:19:04.971Z,993.28
2018-11-02T04:20:02.108Z,993.33
2018-11-02T04:21:03.270Z,993.30
2018-11-02T04:22:04.722Z,993.35
2018-11-02T04:23:02.934Z,993.34
2018-11-02T04:24:03.548Z,993.39
2018-11-02T04:25:04.014Z,993.38
2018-11-02T04:26:04.218Z,993.41
2018-11-02T04:27:03.987Z,993.48
2018-11-02T04:28:04.151Z,993.48
2018-11-02T04:29:04.708Z,993.56
2018-11-02T04:30:05.060Z,993.55
2018-11-02T04:31:07.497Z,993.60
2018-11-02T04:32:03.992Z,993.61
2018-11-02T04:33:04.272Z,993.66
2018-11-02T04:34:06.092Z,993.68
2018-11-02T04:35:08.347Z,993.70
2018-11-02T04:36:04.685Z,993.69
2018-11-02T04:37:07.945Z,993.72
2018-11-02T04:38:09.272Z,993.74
2018-11-02T04:39:07.280Z,993.78
2018-11-02T04:40:05.348Z,993.76
2018-11-02T04:41:05.581Z,993.83
2018-11-02T04:42:06.141Z,993.77
2018-11-02T04:43:06.310Z,993.79
2018-11-02T04:44:06.303Z,993.80
2018-11-02T04:45:06.789Z,993.76
2018-11-02T04:46:06.330Z,993.79
2018-11-02T04:47:07.505Z,993.81
2018-11-02T04:48:06.833Z,993.78
2018-11-02T04:49:14.790Z,993.79
2018-11-02T04:50:14.771Z,993.80
2018-11-02T04:51:15.196Z,993.81
2018-11-02T04:52:07.368Z,993.83
2018-11-02T04:53:08.451Z,993.81
2018-11-02T04:54:15.052Z,993.81
2018-11-02T04:55:16.967Z,993.85
2018-11-02T04:56:20.958Z,993.86
2018-11-02T04:57:20.808Z,993.85
2018-11-02T04:58:08.104Z,993.87
2018-11-02T04:59:08.278Z,993.85
2018-11-02T05:00:08.410Z,993.86
2018-11-02T05:01:08.497Z,993.91
2018-11-02T05:02:08.733Z,993.93
2018-11-02T05:03:08.880Z,993.92
2018-11-02T05:04:09.015Z,993.95
2018-11-02T05:05:09.099Z,993.99
2018-11-02T05:06:09.338Z,993.99
2018-11-02T05:07:09.455Z,994.06
2018-11-02T05:08:09.595Z,994.06
2018-11-02T05:09:09.686Z,994.07
2018-11-02T05:10:09.793Z,994.09
2018-11-02T05:11:09.929Z,994.13
2018-11-02T05:12:10.016Z,994.14
2018-11-02T05:13:10.108Z,994.21
2018-11-02T05:14:10.339Z,994.24
2018-11-02T05:15:10.465Z,994.27
2018-11-02T05:16:10.639Z,994.28
2018-11-02T05:17:10.742Z,994.28
2018-11-02T05:18:10.846Z,994.29
2018-11-02T05:19:10.955Z,994.28
2018-11-02T05:20:11.049Z,994.33
2018-11-02T05:21:11.350Z,994.32
2018-11-02T05:22:11.451Z,994.35
2018-11-02T05:23:11.636Z,994.40
2018-11-02T05:24:11.724Z,994.46
2018-11-02T05:25:11.837Z,994.51
2018-11-02T05:26:12.122Z,994.50
2018-11-02T05:27:12.238Z,994.53
2018-11-02T05:28:12.368Z,994.56
2018-11-02T05:29:12.453Z,994.55
2018-11-02T05:30:12.660Z,994.55
2018-11-02T05:31:12.887Z,994.57
2018-11-02T05:32:12.996Z,994.59
2018-11-02T05:33:13.135Z,994.64
2018-11-02T05:34:13.211Z,994.62
2018-11-02T05:35:13.459Z,994.64
2018-11-02T05:36:13.600Z,994.72
2018-11-02T05:37:13.735Z,994.72
2018-11-02T05:38:13.839Z,994.81
2018-11-02T05:39:14.188Z,994.82
2018-11-02T05:40:14.225Z,994.86
2018-11-02T05:41:14.300Z,994.93
2018-11-02T05:42:14.402Z,995.00
2018-11-02T05:43:14.468Z,995.01
2018-11-02T05:44:14.715Z,995.03
2018-11-02T05:45:14.811Z,995.03
2018-11-02T05:46:14.937Z,995.03
2018-11-02T05:47:15.103Z,995.02
2018-11-02T05:48:15.142Z,995.06
2018-11-02T05:49:15.231Z,995.07
2018-11-02T05:50:15.341Z,995.05
2018-11-02T05:51:15.487Z,995.08
2018-11-02T05:52:15.622Z,995.07
2018-11-02T05:53:15.777Z,995.07
2018-11-02T05:54:15.895Z,995.04
2018-11-02T05:55:16.128Z,995.00
2018-11-02T05:56:16.275Z,994.96
2018-11-02T05:57:16.478Z,994.95
2018-11-02T05:58:16.697Z,994.98
2018-11-02T05:59:16.926Z,994.98
2018-11-02T06:00:17.046Z,994.96
2018-11-02T06:01:17.184Z,995.00
2018-11-02T06:02:17.271Z,994.98
2018-11-02T06:03:17.531Z,995.04
2018-11-02T06:04:17.628Z,995.12
2018-11-02T06:05:17.709Z,995.17
2018-11-02T06:06:17.951Z,995.17
2018-11-02T06:07:18.035Z,995.19
2018-11-02T06:08:18.435Z,995.18
2018-11-02T06:09:18.688Z,995.19
2018-11-02T06:10:19.155Z,995.16
2018-11-02T06:11:18.725Z,995.19
2018-11-02T06:12:19.298Z,995.18
2018-11-02T06:13:20.124Z,995.17
2018-11-02T06:14:19.149Z,995.18
2018-11-02T06:15:19.255Z,995.18
2018-11-02T06:16:19.357Z,995.20
2018-11-02T06:17:19.440Z,995.20
2018-11-02T06:18:19.670Z,995.25
2018-11-02T06:19:19.803Z,995.25
2018-11-02T06:20:19.902Z,995.28
2018-11-02T06:21:20.120Z,995.25
2018-11-02T06:22:20.245Z,995.25
2018-11-02T06:23:20.337Z,995.25
2018-11-02T06:24:20.515Z,995.22
2018-11-02T06:25:20.573Z,995.21
2018-11-02T06:26:20.648Z,995.24
2018-11-02T06:27:20.895Z,995.21
2018-11-02T06:28:21.050Z,995.28
2018-11-02T06:29:21.158Z,995.31
2018-11-02T06:30:22.177Z,995.32
2018-11-02T06:31:21.324Z,995.43
2018-11-02T06:32:21.508Z,995.42
2018-11-02T06:33:21.689Z,995.42
2018-11-02T06:34:21.880Z,995.45
2018-11-02T06:35:22.061Z,995.48
2018-11-02T06:36:22.250Z,995.48
2018-11-02T06:37:22.433Z,995.51
2018-11-02T06:38:22.612Z,995.53
2018-11-02T06:39:22.876Z,995.57
2018-11-02T06:40:22.929Z,995.61
2018-11-02T06:41:23.281Z,995.60
2018-11-02T06:42:23.428Z,995.64
2018-11-02T06:43:23.396Z,995.62
2018-11-02T06:44:23.802Z,995.65
2018-11-02T06:45:23.644Z,995.69
2018-11-02T06:46:23.730Z,995.73
2018-11-02T06:47:23.984Z,995.73
2018-11-02T06:48:24.083Z,995.71
2018-11-02T06:49:24.308Z,995.74
2018-11-02T06:50:24.428Z,995.75
2018-11-02T06:51:24.580Z,995.79
2018-11-02T06:52:24.724Z,995.81
2018-11-02T06:53:24.861Z,995.82
2018-11-02T06:54:24.952Z,995.83
2018-11-02T06:55:25.111Z,995.85
2018-11-02T06:56:25.205Z,995.86
2018-11-02T06:57:25.312Z,995.90
2018-11-02T06:58:25.394Z,995.95
2018-11-02T06:59:25.644Z,995.95
2018-11-02T07:00:25.740Z,996.01
2018-11-02T07:01:25.814Z,996.00
2018-11-02T07:02:25.968Z,996.02
2018-11-02T07:03:26.122Z,996.03
2018-11-02T07:04:26.208Z,996.02
2018-11-02T07:05:26.350Z,996.06
2018-11-02T07:06:26.472Z,996.11
2018-11-02T07:07:26.684Z,996.08
2018-11-02T07:08:34.679Z,996.08
2018-11-02T07:09:26.903Z,996.09
2018-11-02T07:10:34.753Z,996.12
2018-11-02T07:11:27.150Z,996.12
2018-11-02T07:12:34.855Z,996.09
2018-11-02T07:13:34.884Z,996.13
2018-11-02T07:14:35.475Z,996.13
2018-11-02T07:15:27.772Z,996.15
2018-11-02T07:16:27.901Z,996.18
2018-11-02T07:17:28.027Z,996.25
2018-11-02T07:18:28.133Z,996.23
2018-11-02T07:19:28.224Z,996.27
2018-11-02T07:20:28.436Z,996.31
2018-11-02T07:21:28.661Z,996.35
2018-11-02T07:22:28.765Z,996.39
2018-11-02T07:23:28.892Z,996.44
2018-11-02T07:24:28.989Z,996.46
2018-11-02T07:25:29.087Z,996.41
2018-11-02T07:26:29.195Z,996.47
2018-11-02T07:27:29.299Z,996.45
2018-11-02T07:28:29.394Z,996.51
2018-11-02T07:29:29.496Z,996.55
2018-11-02T07:30:29.638Z,996.54
2018-11-02T07:31:29.706Z,996.58
2018-11-02T07:32:29.878Z,996.57
2018-11-02T07:33:29.981Z,996.61
2018-11-02T07:34:30.117Z,996.63
2018-11-02T07:35:30.214Z,996.66
2018-11-02T07:36:30.364Z,996.65
2018-11-02T07:37:30.459Z,996.71
2018-11-02T07:38:30.591Z,996.71
2018-11-02T07:39:30.717Z,996.74
2018-11-02T07:40:30.830Z,996.81
2018-11-02T07:41:30.916Z,996.79
2018-11-02T07:42:31.121Z,996.83
2018-11-02T07:43:31.336Z,996.79
2018-11-02T07:44:31.470Z,996.86
2018-11-02T07:45:31.667Z,996.85
2018-11-02T07:46:31.754Z,996.87
2018-11-02T07:47:31.871Z,996.87
2018-11-02T07:48:32.075Z,996.89
2018-11-02T07:49:32.328Z,996.88
2018-11-02T07:50:32.492Z,996.92
2018-11-02T07:51:32.634Z,996.92
2018-11-02T07:52:32.747Z,996.89
2018-11-02T07:53:32.851Z,996.96
2018-11-02T07:54:32.954Z,997.01
2018-11-02T07:55:33.184Z,997.03
2018-11-02T07:56:33.412Z,997.07
2018-11-02T07:57:33.619Z,997.06
2018-11-02T07:58:33.745Z,997.04
2018-11-02T07:59:33.871Z,997.05
2018-11-02T08:00:33.986Z,997.07
2018-11-02T08:01:34.085Z,997.13
2018-11-02T08:02:34.213Z,997.13
2018-11-02T08:03:34.339Z,997.13
2018-11-02T08:04:36.258Z,997.15
2018-11-02T08:05:34.594Z,997.15
2018-11-02T08:06:34.865Z,997.17
2018-11-02T08:07:34.943Z,997.20
2018-11-02T08:08:35.227Z,997.26
2018-11-02T08:09:35.347Z,997.24
2018-11-02T08:10:35.450Z,997.26
2018-11-02T08:11:35.733Z,997.25
2018-11-02T08:12:35.803Z,997.21
2018-11-02T08:13:36.004Z,997.22
2018-11-02T08:14:36.072Z,997.22
2018-11-02T08:15:36.157Z,997.20
2018-11-02T08:16:36.361Z,997.22
2018-11-02T08:17:36.588Z,997.24
2018-11-02T08:18:36.686Z,997.24
2018-11-02T08:19:36.807Z,997.23
2018-11-02T08:20:36.998Z,997.19
2018-11-02T08:21:37.213Z,997.24
2018-11-02T08:22:37.328Z,997.25
2018-11-02T08:23:38.018Z,997.29
2018-11-02T08:24:37.846Z,997.31
2018-11-02T08:25:37.692Z,997.32
2018-11-02T08:26:37.810Z,997.32
2018-11-02T08:27:39.184Z,997.35
2018-11-02T08:28:39.335Z,997.40
2018-11-02T08:29:39.093Z,997.47
2018-11-02T08:30:38.446Z,997.46
2018-11-02T08:31:38.640Z,997.52
2018-11-02T08:32:38.864Z,997.54
2018-11-02T08:33:39.089Z,997.55
2018-11-02T08:34:39.243Z,997.53
2018-11-02T08:35:39.368Z,997.56
2018-11-02T08:36:39.455Z,997.56
2018-11-02T08:37:39.550Z,997.55
2018-11-02T08:38:39.771Z,997.55
2018-11-02T08:39:40.051Z,997.51
2018-11-02T08:40:40.190Z,997.59
2018-11-02T08:41:40.346Z,997.64
2018-11-02T08:42:40.418Z,997.57
2018-11-02T08:43:40.655Z,997.58
2018-11-02T08:44:40.761Z,997.59
2018-11-02T08:45:40.870Z,997.57
2018-11-02T08:46:41.179Z,997.54
2018-11-02T08:47:41.123Z,997.56
2018-11-02T08:48:41.233Z,997.51
2018-11-02T08:49:41.415Z,997.55
2018-11-02T08:50:41.500Z,997.56
2018-11-02T08:51:41.747Z,997.51
2018-11-02T08:52:41.927Z,997.54
2018-11-02T08:53:42.007Z,997.60
2018-11-02T08:54:42.128Z,997.64
2018-11-02T08:55:42.258Z,997.67
2018-11-02T08:56:42.389Z,997.62
2018-11-02T08:57:42.519Z,997.73
2018-11-02T08:58:43.279Z,997.68
2018-11-02T08:59:42.779Z,997.73
2018-11-02T09:00:43.200Z,997.70
2018-11-02T09:01:43.073Z,997.69
2018-11-02T09:02:43.161Z,997.67
2018-11-02T09:03:43.366Z,997.73
2018-11-02T09:04:43.567Z,997.75
2018-11-02T09:05:43.782Z,997.76
2018-11-02T09:06:44.001Z,997.76
2018-11-02T09:07:44.225Z,997.81
2018-11-02T09:08:44.397Z,997.81
2018-11-02T09:09:44.501Z,997.91
2018-11-02T09:10:44.664Z,997.93
2018-11-02T09:11:44.801Z,997.94
2018-11-02T09:12:44.928Z,997.94
2018-11-02T09:13:45.045Z,997.91
2018-11-02T09:14:45.214Z,997.87
2018-11-02T09:15:45.333Z,997.94
2018-11-02T09:16:45.433Z,997.91
2018-11-02T09:17:45.672Z,998.00
2018-11-02T09:18:45.798Z,998.04
2018-11-02T09:19:45.911Z,998.01
2018-11-02T09:20:46.050Z,998.10
2018-11-02T09:21:46.159Z,998.11
2018-11-02T09:22:46.309Z,998.05
2018-11-02T09:23:46.417Z,998.09
2018-11-02T09:24:46.536Z,998.08
2018-11-02T09:25:46.667Z,998.10
2018-11-02T09:26:46.773Z,998.13
2018-11-02T09:27:54.716Z,998.16
2018-11-02T09:28:48.474Z,998.15
2018-11-02T09:29:47.336Z,998.15
2018-11-02T09:30:48.681Z,998.18
2018-11-02T09:31:47.764Z,998.21
2018-11-02T09:32:48.025Z,998.17
2018-11-02T09:33:48.044Z,998.23
2018-11-02T09:34:48.222Z,998.19
2018-11-02T09:35:48.575Z,998.25
2018-11-02T09:36:49.239Z,998.22
2018-11-02T09:37:49.510Z,998.25
2018-11-02T09:38:49.004Z,998.27
2018-11-02T09:39:49.213Z,998.27
2018-11-02T09:40:49.117Z,998.27
2018-11-02T09:41:49.194Z,998.27
2018-11-02T09:42:49.569Z,998.32
2018-11-02T09:43:49.628Z,998.26
2018-11-02T09:44:49.843Z,998.25
2018-11-02T09:45:50.116Z,998.23
2018-11-02T09:46:50.213Z,998.20
2018-11-02T09:47:50.363Z,998.18
2018-11-02T09:48:50.444Z,998.22
2018-11-02T09:49:50.667Z,998.24
2018-11-02T09:50:51.037Z,998.25
2018-11-02T09:51:51.046Z,998.23
2018-11-02T09:52:51.262Z,998.26
2018-11-02T09:53:51.443Z,998.22
2018-11-02T09:54:51.530Z,998.22
2018-11-02T09:55:51.770Z,998.18
2018-11-02T09:56:52.015Z,998.17
2018-11-02T09:57:52.131Z,998.18
2018-11-02T09:58:52.072Z,998.17
2018-11-02T09:59:52.283Z,998.11
2018-11-02T10:00:52.975Z,998.11
2018-11-02T10:01:52.775Z,998.05
2018-11-02T10:02:52.848Z,998.04
2018-11-02T10:03:53.072Z,998.05
2018-11-02T10:04:53.165Z,998.12
2018-11-02T10:05:53.483Z,998.13
2018-11-02T10:06:53.559Z,998.17
2018-11-02T10:07:53.786Z,998.22
2018-11-02T10:08:53.988Z,998.22
2018-11-02T10:09:54.237Z,998.24
2018-11-02T10:10:54.326Z,998.29
2018-11-02T10:11:54.607Z,998.30
2018-11-02T10:12:54.681Z,998.27
2018-11-02T10:13:54.761Z,998.24
2018-11-02T10:14:55.067Z,998.29
2018-11-02T10:15:54.979Z,998.27
2018-11-02T10:16:55.077Z,998.33
2018-11-02T10:17:55.176Z,998.29
2018-11-02T10:18:55.268Z,998.32
2018-11-02T10:19:55.527Z,998.33
2018-11-02T10:20:55.627Z,998.35
2018-11-02T10:21:55.732Z,998.31
2018-11-02T10:22:55.838Z,998.27
2018-11-02T10:23:56.034Z,998.22
2018-11-02T10:24:56.161Z,998.20
2018-11-02T10:25:56.384Z,998.19
2018-11-02T10:26:56.512Z,998.18
2018-11-02T10:27:56.631Z,998.20
2018-11-02T10:28:57.748Z,998.21
2018-11-02T10:29:57.015Z,998.23
2018-11-02T10:30:57.117Z,998.26
2018-11-02T10:31:57.375Z,998.27
2018-11-02T10:32:57.467Z,998.22
2018-11-02T10:33:57.771Z,998.20
2018-11-02T10:34:57.874Z,998.21
2018-11-02T10:35:58.054Z,998.22
2018-11-02T10:36:58.083Z,998.24
2018-11-02T10:37:58.191Z,998.25
2018-11-02T10:38:58.274Z,998.24
2018-11-02T10:39:58.394Z,998.25
2018-11-02T10:40:58.515Z,998.26
2018-11-02T10:41:58.613Z,998.27
2018-11-02T10:42:58.719Z,998.29
2018-11-02T10:43:58.827Z,998.30
2018-11-02T10:44:58.969Z,998.33
2018-11-02T10:45:59.101Z,998.30
2018-11-02T10:46:59.264Z,998.34
2018-11-02T10:47:59.415Z,998.37
2018-11-02T10:48:59.589Z,998.35
2018-11-02T10:49:59.653Z,998.38
2018-11-02T10:50:59.886Z,998.45
2018-11-02T10:51:59.998Z,998.43
2018-11-02T10:53:00.123Z,998.45
2018-11-02T10:54:01.345Z,998.43
2018-11-02T10:55:00.361Z,998.44
2018-11-02T10:56:00.464Z,998.48
2018-11-02T10:57:00.613Z,998.49
2018-11-02T10:58:00.725Z,998.51
2018-11-02T10:59:00.828Z,998.56
2018-11-02T11:00:00.991Z,998.55
2018-11-02T11:01:01.274Z,998.55
2018-11-02T11:02:01.215Z,998.55
2018-11-02T11:03:01.325Z,998.58
2018-11-02T11:04:01.447Z,998.52
2018-11-02T11:05:01.525Z,998.55
2018-11-02T11:06:01.795Z,998.50
2018-11-02T11:07:02.035Z,998.51
2018-11-02T11:08:02.119Z,998.50
2018-11-02T11:09:02.230Z,998.49
2018-11-02T11:10:02.370Z,998.51
2018-11-02T11:11:02.769Z,998.51
2018-11-02T11:12:02.694Z,998.57
2018-11-02T11:13:03.165Z,998.54
2018-11-02T11:14:02.867Z,998.56
2018-11-02T11:15:02.944Z,998.57
2018-11-02T11:16:03.183Z,998.62
2018-11-02T11:17:03.268Z,998.57
2018-11-02T11:18:06.586Z,998.60
2018-11-02T11:19:06.617Z,998.56
2018-11-02T11:20:03.889Z,998.58
2018-11-02T11:21:04.061Z,998.57
2018-11-02T11:22:04.112Z,998.57
2018-11-02T11:23:04.359Z,998.59
2018-11-02T11:24:04.427Z,998.61
2018-11-02T11:25:04.673Z,998.62
2018-11-02T11:26:04.797Z,998.62
2018-11-02T11:27:04.878Z,998.59
2018-11-02T11:28:05.137Z,998.60
2018-11-02T11:29:05.268Z,998.63
2018-11-02T11:30:05.391Z,998.63
2018-11-02T11:31:05.522Z,998.60
2018-11-02T11:32:05.618Z,998.60
2018-11-02T11:33:05.829Z,998.62
2018-11-02T11:34:06.056Z,998.63
2018-11-02T11:35:06.258Z,998.61
2018-11-02T11:36:06.465Z,998.66
2018-11-02T11:37:06.698Z,998.69
2018-11-02T11:38:06.799Z,998.67
2018-11-02T11:39:06.855Z,998.69
2018-11-02T11:40:07.083Z,998.68
2018-11-02T11:41:07.304Z,998.72
2018-11-02T11:42:07.513Z,998.71
2018-11-02T11:43:07.804Z,998.70
2018-11-02T11:44:07.899Z,998.70
2018-11-02T11:45:08.104Z,998.70
2018-11-02T11:46:08.318Z,998.70
2018-11-02T11:47:08.549Z,998.73
2018-11-02T11:48:08.653Z,998.72
2018-11-02T11:49:08.769Z,998.68
2018-11-02T11:50:08.965Z,998.71
2018-11-02T11:51:09.048Z,998.70
2018-11-02T11:52:09.575Z,998.70
2018-11-02T11:53:09.414Z,998.73
2018-11-02T11:54:09.533Z,998.75
2018-11-02T11:55:09.733Z,998.72
2018-11-02T11:56:09.980Z,998.72
2018-11-02T11:57:10.092Z,998.70
2018-11-02T11:58:10.198Z,998.71
2018-11-02T11:59:10.362Z,998.72
2018-11-02T12:00:11.891Z,998.75
2018-11-02T12:01:10.679Z,998.75
2018-11-02T12:02:10.860Z,998.78
2018-11-02T12:03:10.904Z,998.73
2018-11-02T12:04:11.143Z,998.79
2018-11-02T12:05:11.205Z,998.75
2018-11-02T12:06:11.400Z,998.75
2018-11-02T12:07:11.639Z,998.73
2018-11-02T12:08:11.701Z,998.73
2018-11-02T12:09:11.958Z,998.72
2018-11-02T12:10:12.083Z,998.69
2018-11-02T12:11:12.155Z,998.66
2018-11-02T12:12:12.386Z,998.66
2018-11-02T12:13:12.502Z,998.65
2018-11-02T12:14:12.634Z,998.62
2018-11-02T12:15:12.813Z,998.59
2018-11-02T12:16:12.941Z,998.64
2018-11-02T12:17:12.978Z,998.60
2018-11-02T12:18:13.105Z,998.60
2018-11-02T12:19:13.213Z,998.55
2018-11-02T12:20:13.402Z,998.62
2018-11-02T12:21:13.437Z,998.62
2018-11-02T12:22:13.577Z,998.66
2018-11-02T12:23:13.689Z,998.67
2018-11-02T12:24:13.792Z,998.66
2018-11-02T12:25:13.932Z,998.65
2018-11-02T12:26:14.034Z,998.72
2018-11-02T12:27:14.133Z,998.68
2018-11-02T12:28:14.280Z,998.70
2018-11-02T12:29:14.371Z,998.72
2018-11-02T12:30:14.577Z,998.71